sensor_id;sensor_type;location;lat;lon;timestamp;P1;P2;P0
43479;PMS5003;29067;35.492;-97.520;2023-08-24T00:02:08;9;9;
43479;PMS5003;29067;35.492;-97.520;2023-08-24T00:04:36;12;12;
43479;PMS5003;29067;35.492;-97.520;2023-08-24T00:07:04;12;12;
43479;PMS5003;29067;35.492;-97.520;2023-08-24T00:09:32;12;12;
43479;PMS5003;29067;35.492;-97.520;2023-08-24T00:12:00;14;12;
43479;PMS5003;29067;35.492;-97.520;2023-08-24T00:14:28;11;11;
43479;PMS5003;29067;35.492;-97.520;2023-08-24T00:16:56;14;13;
43479;PMS5003;29067;35.492;-97.520;2023-08-24T00:19:26;15;12;
43479;PMS5003;29067;35.492;-97.520;2023-08-24T00:22:04;11;10;
43479;PMS5003;29067;35.492;-97.520;2023-08-24T00:24:37;15;12;
43479;PMS5003;29067;35.492;-97.520;2023-08-24T00:27:05;12;10;
43479;PMS5003;29067;35.492;-97.520;2023-08-24T00:29:33;12;11;
43479;PMS5003;29067;35.492;-97.520;2023-08-24T00:32:02;13;12;
43479;PMS5003;29067;35.492;-97.520;2023-08-24T00:34:30;11;10;
43479;PMS5003;29067;35.492;-97.520;2023-08-24T00:36:57;13;11;
43479;PMS5003;29067;35.492;-97.520;2023-08-24T00:39:26;11;11;
43479;PMS5003;29067;35.492;-97.520;2023-08-24T00:41:54;12;11;
43479;PMS5003;29067;35.492;-97.520;2023-08-24T00:44:22;11;11;
43479;PMS5003;29067;35.492;-97.520;2023-08-24T00:46:50;10;10;
43479;PMS5003;29067;35.492;-97.520;2023-08-24T00:49:19;12;12;
43479;PMS5003;29067;35.492;-97.520;2023-08-24T00:49:21;12;12;
43479;PMS5003;29067;35.492;-97.520;2023-08-24T00:51:50;12;12;
43479;PMS5003;29067;35.492;-97.520;2023-08-24T00:54:18;13;11;
43479;PMS5003;29067;35.492;-97.520;2023-08-24T00:56:47;15;12;
43479;PMS5003;29067;35.492;-97.520;2023-08-24T00:59:15;11;11;
43479;PMS5003;29067;35.492;-97.520;2023-08-24T01:01:43;13;12;
43479;PMS5003;29067;35.492;-97.520;2023-08-24T01:04:14;14;13;
43479;PMS5003;29067;35.492;-97.520;2023-08-24T01:06:42;10;10;
43479;PMS5003;29067;35.492;-97.520;2023-08-24T01:09:11;15;14;
43479;PMS5003;29067;35.492;-97.520;2023-08-24T01:11:42;16;15;
43479;PMS5003;29067;35.492;-97.520;2023-08-24T01:14:20;19;16;
43479;PMS5003;29067;35.492;-97.520;2023-08-24T01:16:54;18;18;
43479;PMS5003;29067;35.492;-97.520;2023-08-24T01:19:34;21;17;
43479;PMS5003;29067;35.492;-97.520;2023-08-24T01:22:07;17;15;
43479;PMS5003;29067;35.492;-97.520;2023-08-24T01:24:45;20;18;
43479;PMS5003;29067;35.492;-97.520;2023-08-24T01:27:20;20;19;
43479;PMS5003;29067;35.492;-97.520;2023-08-24T01:29:48;19;17;
43479;PMS5003;29067;35.492;-97.520;2023-08-24T01:32:17;24;22;
43479;PMS5003;29067;35.492;-97.520;2023-08-24T01:34:45;21;21;
43479;PMS5003;29067;35.492;-97.520;2023-08-24T01:37:13;20;19;
43479;PMS5003;29067;35.492;-97.520;2023-08-24T01:39:42;21;20;
43479;PMS5003;29067;35.492;-97.520;2023-08-24T01:42:21;19;18;
43479;PMS5003;29067;35.492;-97.520;2023-08-24T01:44:56;19;19;
43479;PMS5003;29067;35.492;-97.520;2023-08-24T01:47:28;18;18;
43479;PMS5003;29067;35.492;-97.520;2023-08-24T01:49:58;20;20;
43479;PMS5003;29067;35.492;-97.520;2023-08-24T01:52:27;23;22;
43479;PMS5003;29067;35.492;-97.520;2023-08-24T01:54:55;25;21;
43479;PMS5003;29067;35.492;-97.520;2023-08-24T01:57:23;18;18;
43479;PMS5003;29067;35.492;-97.520;2023-08-24T01:59:51;20;18;
43479;PMS5003;29067;35.492;-97.520;2023-08-24T02:02:20;24;21;
43479;PMS5003;29067;35.492;-97.520;2023-08-24T02:04:53;18;18;
43479;PMS5003;29067;35.492;-97.520;2023-08-24T02:07:25;20;19;
43479;PMS5003;29067;35.492;-97.520;2023-08-24T02:09:58;20;20;
43479;PMS5003;29067;35.492;-97.520;2023-08-24T02:12:26;21;21;
43479;PMS5003;29067;35.492;-97.520;2023-08-24T02:15:00;20;19;
43479;PMS5003;29067;35.492;-97.520;2023-08-24T02:17:28;24;23;
43479;PMS5003;29067;35.492;-97.520;2023-08-24T02:19:56;19;19;
43479;PMS5003;29067;35.492;-97.520;2023-08-24T02:22:24;18;16;
43479;PMS5003;29067;35.492;-97.520;2023-08-24T02:24:52;25;21;
43479;PMS5003;29067;35.492;-97.520;2023-08-24T02:27:20;26;23;
43479;PMS5003;29067;35.492;-97.520;2023-08-24T02:29:48;21;20;
43479;PMS5003;29067;35.492;-97.520;2023-08-24T02:32:17;22;21;
43479;PMS5003;29067;35.492;-97.520;2023-08-24T02:34:44;23;20;
43479;PMS5003;29067;35.492;-97.520;2023-08-24T02:37:13;20;19;
43479;PMS5003;29067;35.492;-97.520;2023-08-24T02:39:41;19;19;
43479;PMS5003;29067;35.492;-97.520;2023-08-24T02:42:10;19;19;
43479;PMS5003;29067;35.492;-97.520;2023-08-24T02:44:38;24;22;
43479;PMS5003;29067;35.492;-97.520;2023-08-24T02:47:14;20;19;
43479;PMS5003;29067;35.492;-97.520;2023-08-24T02:49:47;19;19;
43479;PMS5003;29067;35.492;-97.520;2023-08-24T02:52:15;19;19;
43479;PMS5003;29067;35.492;-97.520;2023-08-24T02:54:43;23;19;
43479;PMS5003;29067;35.492;-97.520;2023-08-24T02:57:16;17;17;
43479;PMS5003;29067;35.492;-97.520;2023-08-24T02:59:50;24;22;
43479;PMS5003;29067;35.492;-97.520;2023-08-24T03:02:19;22;20;
43479;PMS5003;29067;35.492;-97.520;2023-08-24T03:04:48;21;20;
43479;PMS5003;29067;35.492;-97.520;2023-08-24T03:07:16;19;18;
43479;PMS5003;29067;35.492;-97.520;2023-08-24T03:09:44;22;21;
43479;PMS5003;29067;35.492;-97.520;2023-08-24T03:12:12;22;20;
43479;PMS5003;29067;35.492;-97.520;2023-08-24T03:14:41;23;20;
43479;PMS5003;29067;35.492;-97.520;2023-08-24T03:17:14;22;20;
43479;PMS5003;29067;35.492;-97.520;2023-08-24T03:19:42;21;18;
43479;PMS5003;29067;35.492;-97.520;2023-08-24T03:22:24;21;19;
43479;PMS5003;29067;35.492;-97.520;2023-08-24T03:24:53;22;21;
43479;PMS5003;29067;35.492;-97.520;2023-08-24T03:27:22;19;19;
43479;PMS5003;29067;35.492;-97.520;2023-08-24T03:29:51;21;21;
43479;PMS5003;29067;35.492;-97.520;2023-08-24T03:32:20;19;19;
43479;PMS5003;29067;35.492;-97.520;2023-08-24T03:34:49;22;19;
43479;PMS5003;29067;35.492;-97.520;2023-08-24T03:37:17;19;19;
43479;PMS5003;29067;35.492;-97.520;2023-08-24T03:39:45;20;18;
43479;PMS5003;29067;35.492;-97.520;2023-08-24T03:42:14;21;20;
43479;PMS5003;29067;35.492;-97.520;2023-08-24T03:44:49;20;19;
43479;PMS5003;29067;35.492;-97.520;2023-08-24T03:47:17;21;18;
43479;PMS5003;29067;35.492;-97.520;2023-08-24T03:49:46;20;20;
43479;PMS5003;29067;35.492;-97.520;2023-08-24T03:52:18;21;20;
43479;PMS5003;29067;35.492;-97.520;2023-08-24T03:54:51;22;20;
43479;PMS5003;29067;35.492;-97.520;2023-08-24T03:57:20;24;22;
43479;PMS5003;29067;35.492;-97.520;2023-08-24T03:59:49;22;21;
43479;PMS5003;29067;35.492;-97.520;2023-08-24T04:02:22;28;24;
43479;PMS5003;29067;35.492;-97.520;2023-08-24T04:04:51;21;20;
43479;PMS5003;29067;35.492;-97.520;2023-08-24T04:07:19;20;20;
43479;PMS5003;29067;35.492;-97.520;2023-08-24T04:09:48;22;20;
43479;PMS5003;29067;35.492;-97.520;2023-08-24T04:12:17;22;21;
43479;PMS5003;29067;35.492;-97.520;2023-08-24T04:14:45;24;22;
43479;PMS5003;29067;35.492;-97.520;2023-08-24T04:17:18;22;21;
43479;PMS5003;29067;35.492;-97.520;2023-08-24T04:19:52;27;23;
43479;PMS5003;29067;35.492;-97.520;2023-08-24T04:22:19;21;20;
43479;PMS5003;29067;35.492;-97.520;2023-08-24T04:24:53;25;23;
43479;PMS5003;29067;35.492;-97.520;2023-08-24T04:27:21;22;21;
43479;PMS5003;29067;35.492;-97.520;2023-08-24T04:29:50;20;20;
43479;PMS5003;29067;35.492;-97.520;2023-08-24T04:32:20;21;20;
43479;PMS5003;29067;35.492;-97.520;2023-08-24T04:34:54;20;19;
43479;PMS5003;29067;35.492;-97.520;2023-08-24T04:37:27;22;20;
43479;PMS5003;29067;35.492;-97.520;2023-08-24T04:39:55;21;20;
43479;PMS5003;29067;35.492;-97.520;2023-08-24T04:42:24;25;22;
43479;PMS5003;29067;35.492;-97.520;2023-08-24T04:44:57;21;21;
43479;PMS5003;29067;35.492;-97.520;2023-08-24T04:47:26;24;22;
43479;PMS5003;29067;35.492;-97.520;2023-08-24T04:49:53;24;22;
43479;PMS5003;29067;35.492;-97.520;2023-08-24T04:52:25;22;20;
43479;PMS5003;29067;35.492;-97.520;2023-08-24T04:54:53;23;22;
43479;PMS5003;29067;35.492;-97.520;2023-08-24T04:57:32;22;20;
43479;PMS5003;29067;35.492;-97.520;2023-08-24T05:00:00;24;22;
43479;PMS5003;29067;35.492;-97.520;2023-08-24T05:02:28;22;22;
43479;PMS5003;29067;35.492;-97.520;2023-08-24T05:04:56;28;23;
43479;PMS5003;29067;35.492;-97.520;2023-08-24T05:07:24;23;23;
43479;PMS5003;29067;35.492;-97.520;2023-08-24T05:09:53;26;21;
43479;PMS5003;29067;35.492;-97.520;2023-08-24T05:12:21;24;23;
43479;PMS5003;29067;35.492;-97.520;2023-08-24T05:14:49;23;21;
43479;PMS5003;29067;35.492;-97.520;2023-08-24T05:17:17;22;21;
43479;PMS5003;29067;35.492;-97.520;2023-08-24T05:19:45;22;21;
43479;PMS5003;29067;35.492;-97.520;2023-08-24T05:22:17;23;20;
43479;PMS5003;29067;35.492;-97.520;2023-08-24T05:24:47;27;22;
43479;PMS5003;29067;35.492;-97.520;2023-08-24T05:27:15;22;22;
43479;PMS5003;29067;35.492;-97.520;2023-08-24T05:29:49;23;23;
43479;PMS5003;29067;35.492;-97.520;2023-08-24T05:32:17;22;22;
43479;PMS5003;29067;35.492;-97.520;2023-08-24T05:34:45;19;17;
43479;PMS5003;29067;35.492;-97.520;2023-08-24T05:37:13;25;22;
43479;PMS5003;29067;35.492;-97.520;2023-08-24T05:39:49;23;22;
43479;PMS5003;29067;35.492;-97.520;2023-08-24T05:42:17;28;23;
43479;PMS5003;29067;35.492;-97.520;2023-08-24T05:44:51;24;23;
43479;PMS5003;29067;35.492;-97.520;2023-08-24T05:47:18;21;20;
43479;PMS5003;29067;35.492;-97.520;2023-08-24T05:49:47;26;23;
43479;PMS5003;29067;35.492;-97.520;2023-08-24T05:52:15;24;22;
43479;PMS5003;29067;35.492;-97.520;2023-08-24T05:54:48;20;20;
43479;PMS5003;29067;35.492;-97.520;2023-08-24T05:57:22;23;22;
43479;PMS5003;29067;35.492;-97.520;2023-08-24T05:59:55;19;19;
43479;PMS5003;29067;35.492;-97.520;2023-08-24T06:02:28;24;22;
43479;PMS5003;29067;35.492;-97.520;2023-08-24T06:05:02;29;25;
43479;PMS5003;29067;35.492;-97.520;2023-08-24T06:07:30;24;24;
43479;PMS5003;29067;35.492;-97.520;2023-08-24T06:10:01;20;20;
43479;PMS5003;29067;35.492;-97.520;2023-08-24T06:12:30;21;20;
43479;PMS5003;29067;35.492;-97.520;2023-08-24T06:14:59;28;27;
43479;PMS5003;29067;35.492;-97.520;2023-08-24T06:17:27;28;25;
43479;PMS5003;29067;35.492;-97.520;2023-08-24T06:19:55;31;25;
43479;PMS5003;29067;35.492;-97.520;2023-08-24T06:22:23;25;24;
43479;PMS5003;29067;35.492;-97.520;2023-08-24T06:24:51;26;24;
43479;PMS5003;29067;35.492;-97.520;2023-08-24T06:27:19;18;17;
43479;PMS5003;29067;35.492;-97.520;2023-08-24T06:29:47;25;23;
43479;PMS5003;29067;35.492;-97.520;2023-08-24T06:32:15;21;20;
43479;PMS5003;29067;35.492;-97.520;2023-08-24T06:34:43;24;23;
43479;PMS5003;29067;35.492;-97.520;2023-08-24T06:37:17;22;20;
43479;PMS5003;29067;35.492;-97.520;2023-08-24T06:39:46;22;22;
43479;PMS5003;29067;35.492;-97.520;2023-08-24T06:42:14;22;20;
43479;PMS5003;29067;35.492;-97.520;2023-08-24T06:44:43;22;21;
43479;PMS5003;29067;35.492;-97.520;2023-08-24T06:47:12;22;22;
43479;PMS5003;29067;35.492;-97.520;2023-08-24T06:49:40;26;23;
43479;PMS5003;29067;35.492;-97.520;2023-08-24T06:52:21;21;21;
43479;PMS5003;29067;35.492;-97.520;2023-08-24T06:54:49;25;24;
43479;PMS5003;29067;35.492;-97.520;2023-08-24T06:57:17;25;24;
43479;PMS5003;29067;35.492;-97.520;2023-08-24T06:59:45;25;23;
43479;PMS5003;29067;35.492;-97.520;2023-08-24T07:02:13;21;20;
43479;PMS5003;29067;35.492;-97.520;2023-08-24T07:04:41;24;23;
43479;PMS5003;29067;35.492;-97.520;2023-08-24T07:07:09;22;22;
43479;PMS5003;29067;35.492;-97.520;2023-08-24T07:09:38;22;21;
43479;PMS5003;29067;35.492;-97.520;2023-08-24T07:12:06;25;20;
43479;PMS5003;29067;35.492;-97.520;2023-08-24T07:14:35;23;22;
43479;PMS5003;29067;35.492;-97.520;2023-08-24T07:17:09;21;20;
43479;PMS5003;29067;35.492;-97.520;2023-08-24T07:19:42;24;23;
43479;PMS5003;29067;35.492;-97.520;2023-08-24T07:22:17;24;21;
43479;PMS5003;29067;35.492;-97.520;2023-08-24T07:24:51;24;24;
43479;PMS5003;29067;35.492;-97.520;2023-08-24T07:27:19;31;25;
43479;PMS5003;29067;35.492;-97.520;2023-08-24T07:29:48;23;23;
43479;PMS5003;29067;35.492;-97.520;2023-08-24T07:32:16;25;23;
43479;PMS5003;29067;35.492;-97.520;2023-08-24T07:34:44;26;25;
43479;PMS5003;29067;35.492;-97.520;2023-08-24T07:37:12;24;22;
43479;PMS5003;29067;35.492;-97.520;2023-08-24T07:39:41;21;21;
43479;PMS5003;29067;35.492;-97.520;2023-08-24T07:42:09;24;24;
43479;PMS5003;29067;35.492;-97.520;2023-08-24T07:44:37;27;26;
43479;PMS5003;29067;35.492;-97.520;2023-08-24T07:47:05;28;25;
43479;PMS5003;29067;35.492;-97.520;2023-08-24T07:49:34;26;21;
43479;PMS5003;29067;35.492;-97.520;2023-08-24T07:52:07;23;23;
43479;PMS5003;29067;35.492;-97.520;2023-08-24T07:54:41;22;22;
43479;PMS5003;29067;35.492;-97.520;2023-08-24T07:57:09;23;23;
43479;PMS5003;29067;35.492;-97.520;2023-08-24T07:59:39;21;21;
43479;PMS5003;29067;35.492;-97.520;2023-08-24T08:02:08;22;22;
43479;PMS5003;29067;35.492;-97.520;2023-08-24T08:04:36;25;24;
43479;PMS5003;29067;35.492;-97.520;2023-08-24T08:07:05;25;22;
43479;PMS5003;29067;35.492;-97.520;2023-08-24T08:09:35;25;24;
43479;PMS5003;29067;35.492;-97.520;2023-08-24T08:12:04;25;25;
43479;PMS5003;29067;35.492;-97.520;2023-08-24T08:14:32;26;25;
43479;PMS5003;29067;35.492;-97.520;2023-08-24T08:17:02;25;25;
43479;PMS5003;29067;35.492;-97.520;2023-08-24T08:19:37;30;26;
43479;PMS5003;29067;35.492;-97.520;2023-08-24T08:22:05;23;23;
43479;PMS5003;29067;35.492;-97.520;2023-08-24T08:24:39;26;24;
43479;PMS5003;29067;35.492;-97.520;2023-08-24T08:27:07;28;24;
43479;PMS5003;29067;35.492;-97.520;2023-08-24T08:29:34;25;24;
43479;PMS5003;29067;35.492;-97.520;2023-08-24T08:32:03;23;22;
43479;PMS5003;29067;35.492;-97.520;2023-08-24T08:34:31;27;27;
43479;PMS5003;29067;35.492;-97.520;2023-08-24T08:36:59;26;22;
43479;PMS5003;29067;35.492;-97.520;2023-08-24T08:39:35;21;20;
43479;PMS5003;29067;35.492;-97.520;2023-08-24T08:42:04;26;24;
43479;PMS5003;29067;35.492;-97.520;2023-08-24T08:44:45;22;21;
43479;PMS5003;29067;35.492;-97.520;2023-08-24T08:47:16;25;23;
43479;PMS5003;29067;35.492;-97.520;2023-08-24T08:49:45;25;23;
43479;PMS5003;29067;35.492;-97.520;2023-08-24T08:52:15;29;25;
43479;PMS5003;29067;35.492;-97.520;2023-08-24T08:54:44;26;25;
43479;PMS5003;29067;35.492;-97.520;2023-08-24T08:57:13;26;24;
43479;PMS5003;29067;35.492;-97.520;2023-08-24T08:59:43;22;21;
43479;PMS5003;29067;35.492;-97.520;2023-08-24T09:02:17;21;20;
43479;PMS5003;29067;35.492;-97.520;2023-08-24T09:04:51;26;26;
43479;PMS5003;29067;35.492;-97.520;2023-08-24T09:07:27;25;25;
43479;PMS5003;29067;35.492;-97.520;2023-08-24T09:10:01;26;23;
43479;PMS5003;29067;35.492;-97.520;2023-08-24T09:12:35;28;24;
43479;PMS5003;29067;35.492;-97.520;2023-08-24T09:15:09;23;22;
43479;PMS5003;29067;35.492;-97.520;2023-08-24T09:17:42;23;22;
43479;PMS5003;29067;35.492;-97.520;2023-08-24T09:20:13;26;24;
43479;PMS5003;29067;35.492;-97.520;2023-08-24T09:22:47;19;19;
43479;PMS5003;29067;35.492;-97.520;2023-08-24T09:25:20;29;25;
43479;PMS5003;29067;35.492;-97.520;2023-08-24T09:27:55;22;22;
43479;PMS5003;29067;35.492;-97.520;2023-08-24T09:30:29;29;29;
43479;PMS5003;29067;35.492;-97.520;2023-08-24T09:33:03;20;19;
43479;PMS5003;29067;35.492;-97.520;2023-08-24T09:35:41;23;22;
43479;PMS5003;29067;35.492;-97.520;2023-08-24T09:38:17;23;21;
43479;PMS5003;29067;35.492;-97.520;2023-08-24T09:40:45;17;16;
43479;PMS5003;29067;35.492;-97.520;2023-08-24T09:43:14;20;19;
43479;PMS5003;29067;35.492;-97.520;2023-08-24T09:45:49;15;15;
43479;PMS5003;29067;35.492;-97.520;2023-08-24T09:48:19;27;23;
43479;PMS5003;29067;35.492;-97.520;2023-08-24T09:50:48;24;22;
43479;PMS5003;29067;35.492;-97.520;2023-08-24T09:53:23;20;19;
43479;PMS5003;29067;35.492;-97.520;2023-08-24T09:55:53;20;18;
43479;PMS5003;29067;35.492;-97.520;2023-08-24T09:58:25;21;17;
43479;PMS5003;29067;35.492;-97.520;2023-08-24T10:00:54;18;17;
43479;PMS5003;29067;35.492;-97.520;2023-08-24T10:03:24;17;16;
43479;PMS5003;29067;35.492;-97.520;2023-08-24T10:05:53;19;17;
43479;PMS5003;29067;35.492;-97.520;2023-08-24T10:08:24;15;14;
43479;PMS5003;29067;35.492;-97.520;2023-08-24T10:10:59;18;17;
43479;PMS5003;29067;35.492;-97.520;2023-08-24T10:13:31;14;14;
43479;PMS5003;29067;35.492;-97.520;2023-08-24T10:16:06;15;15;
43479;PMS5003;29067;35.492;-97.520;2023-08-24T10:18:45;17;17;
43479;PMS5003;29067;35.492;-97.520;2023-08-24T10:21:14;15;15;
43479;PMS5003;29067;35.492;-97.520;2023-08-24T10:23:43;14;14;
43479;PMS5003;29067;35.492;-97.520;2023-08-24T10:26:12;15;14;
43479;PMS5003;29067;35.492;-97.520;2023-08-24T10:28:41;16;15;
43479;PMS5003;29067;35.492;-97.520;2023-08-24T10:31:10;18;17;
43479;PMS5003;29067;35.492;-97.520;2023-08-24T10:33:38;18;15;
43479;PMS5003;29067;35.492;-97.520;2023-08-24T10:36:12;16;15;
43479;PMS5003;29067;35.492;-97.520;2023-08-24T10:38:40;17;15;
43479;PMS5003;29067;35.492;-97.520;2023-08-24T10:41:09;17;15;
43479;PMS5003;29067;35.492;-97.520;2023-08-24T10:43:49;18;18;
43479;PMS5003;29067;35.492;-97.520;2023-08-24T10:46:16;18;16;
43479;PMS5003;29067;35.492;-97.520;2023-08-24T10:49:03;17;17;
43479;PMS5003;29067;35.492;-97.520;2023-08-24T10:51:32;18;17;
43479;PMS5003;29067;35.492;-97.520;2023-08-24T10:54:10;17;16;
43479;PMS5003;29067;35.492;-97.520;2023-08-24T10:56:41;17;17;
43479;PMS5003;29067;35.492;-97.520;2023-08-24T10:59:20;14;14;
43479;PMS5003;29067;35.492;-97.520;2023-08-24T11:03:01;17;15;
43479;PMS5003;29067;35.492;-97.520;2023-08-24T11:05:33;18;15;
43479;PMS5003;29067;35.492;-97.520;2023-08-24T11:08:03;18;17;
43479;PMS5003;29067;35.492;-97.520;2023-08-24T11:10:34;21;18;
43479;PMS5003;29067;35.492;-97.520;2023-08-24T11:13:13;21;17;
43479;PMS5003;29067;35.492;-97.520;2023-08-24T11:15:42;14;14;
43479;PMS5003;29067;35.492;-97.520;2023-08-24T11:18:12;17;15;
43479;PMS5003;29067;35.492;-97.520;2023-08-24T11:20:48;14;13;
43479;PMS5003;29067;35.492;-97.520;2023-08-24T11:23:18;17;16;
43479;PMS5003;29067;35.492;-97.520;2023-08-24T11:25:48;18;17;
43479;PMS5003;29067;35.492;-97.520;2023-08-24T11:28:18;16;15;
43479;PMS5003;29067;35.492;-97.520;2023-08-24T11:30:57;17;16;
43479;PMS5003;29067;35.492;-97.520;2023-08-24T11:33:29;16;15;
43479;PMS5003;29067;35.492;-97.520;2023-08-24T11:36:03;17;17;
43479;PMS5003;29067;35.492;-97.520;2023-08-24T11:38:36;18;17;
43479;PMS5003;29067;35.492;-97.520;2023-08-24T11:41:10;16;16;
43479;PMS5003;29067;35.492;-97.520;2023-08-24T11:43:44;18;15;
43479;PMS5003;29067;35.492;-97.520;2023-08-24T11:46:14;16;13;
43479;PMS5003;29067;35.492;-97.520;2023-08-24T11:48:43;17;15;
43479;PMS5003;29067;35.492;-97.520;2023-08-24T11:51:12;15;15;
43479;PMS5003;29067;35.492;-97.520;2023-08-24T11:53:41;15;15;
43479;PMS5003;29067;35.492;-97.520;2023-08-24T11:56:10;17;15;
43479;PMS5003;29067;35.492;-97.520;2023-08-24T11:58:45;15;13;
43479;PMS5003;29067;35.492;-97.520;2023-08-24T12:01:15;16;15;
43479;PMS5003;29067;35.492;-97.520;2023-08-24T12:03:43;15;15;
43479;PMS5003;29067;35.492;-97.520;2023-08-24T12:06:12;14;12;
43479;PMS5003;29067;35.492;-97.520;2023-08-24T12:08:42;17;15;
43479;PMS5003;29067;35.492;-97.520;2023-08-24T12:11:13;14;13;
43479;PMS5003;29067;35.492;-97.520;2023-08-24T12:13:44;14;13;
43479;PMS5003;29067;35.492;-97.520;2023-08-24T12:16:13;15;13;
43479;PMS5003;29067;35.492;-97.520;2023-08-24T12:18:47;16;14;
43479;PMS5003;29067;35.492;-97.520;2023-08-24T12:21:16;13;12;
43479;PMS5003;29067;35.492;-97.520;2023-08-24T12:23:44;14;14;
43479;PMS5003;29067;35.492;-97.520;2023-08-24T12:26:22;14;13;
43479;PMS5003;29067;35.492;-97.520;2023-08-24T12:28:59;14;12;
43479;PMS5003;29067;35.492;-97.520;2023-08-24T12:31:29;15;14;
43479;PMS5003;29067;35.492;-97.520;2023-08-24T12:34:03;14;14;
43479;PMS5003;29067;35.492;-97.520;2023-08-24T12:36:38;13;11;
43479;PMS5003;29067;35.492;-97.520;2023-08-24T12:39:06;14;14;
43479;PMS5003;29067;35.492;-97.520;2023-08-24T12:41:34;15;13;
43479;PMS5003;29067;35.492;-97.520;2023-08-24T12:44:03;13;13;
43479;PMS5003;29067;35.492;-97.520;2023-08-24T12:46:31;16;16;
43479;PMS5003;29067;35.492;-97.520;2023-08-24T12:48:59;12;12;
43479;PMS5003;29067;35.492;-97.520;2023-08-24T12:51:28;13;11;
43479;PMS5003;29067;35.492;-97.520;2023-08-24T12:53:55;17;16;
43479;PMS5003;29067;35.492;-97.520;2023-08-24T12:56:23;14;13;
43479;PMS5003;29067;35.492;-97.520;2023-08-24T12:58:51;17;14;
43479;PMS5003;29067;35.492;-97.520;2023-08-24T13:01:20;12;11;
43479;PMS5003;29067;35.492;-97.520;2023-08-24T13:03:48;21;14;
43479;PMS5003;29067;35.492;-97.520;2023-08-24T13:06:16;12;12;
43479;PMS5003;29067;35.492;-97.520;2023-08-24T13:08:44;13;12;
43479;PMS5003;29067;35.492;-97.520;2023-08-24T13:11:13;15;13;
43479;PMS5003;29067;35.492;-97.520;2023-08-24T13:13:46;15;14;
43479;PMS5003;29067;35.492;-97.520;2023-08-24T13:16:14;11;11;
43479;PMS5003;29067;35.492;-97.520;2023-08-24T13:18:47;14;14;
43479;PMS5003;29067;35.492;-97.520;2023-08-24T13:21:24;14;13;
43479;PMS5003;29067;35.492;-97.520;2023-08-24T13:23:57;14;13;
43479;PMS5003;29067;35.492;-97.520;2023-08-24T13:26:31;13;11;
43479;PMS5003;29067;35.492;-97.520;2023-08-24T13:28:59;14;12;
43479;PMS5003;29067;35.492;-97.520;2023-08-24T13:31:27;13;12;
43479;PMS5003;29067;35.492;-97.520;2023-08-24T13:34:01;15;14;
43479;PMS5003;29067;35.492;-97.520;2023-08-24T13:36:28;12;12;
43479;PMS5003;29067;35.492;-97.520;2023-08-24T13:38:57;15;14;
43479;PMS5003;29067;35.492;-97.520;2023-08-24T13:41:25;19;17;
43479;PMS5003;29067;35.492;-97.520;2023-08-24T13:43:53;24;22;
43479;PMS5003;29067;35.492;-97.520;2023-08-24T13:46:23;26;24;
43479;PMS5003;29067;35.492;-97.520;2023-08-24T13:48:56;22;20;
43479;PMS5003;29067;35.492;-97.520;2023-08-24T13:51:24;22;21;
43479;PMS5003;29067;35.492;-97.520;2023-08-24T13:53:58;23;22;
43479;PMS5003;29067;35.492;-97.520;2023-08-24T13:56:27;21;20;
43479;PMS5003;29067;35.492;-97.520;2023-08-24T13:58:59;21;19;
43479;PMS5003;29067;35.492;-97.520;2023-08-24T14:01:33;18;16;
43479;PMS5003;29067;35.492;-97.520;2023-08-24T14:04:06;13;12;
43479;PMS5003;29067;35.492;-97.520;2023-08-24T14:06:34;10;9;
43479;PMS5003;29067;35.492;-97.520;2023-08-24T14:09:08;15;11;
43479;PMS5003;29067;35.492;-97.520;2023-08-24T14:11:36;12;12;
43479;PMS5003;29067;35.492;-97.520;2023-08-24T14:14:04;12;11;
43479;PMS5003;29067;35.492;-97.520;2023-08-24T14:16:32;10;9;
43479;PMS5003;29067;35.492;-97.520;2023-08-24T14:19:01;14;12;
43479;PMS5003;29067;35.492;-97.520;2023-08-24T14:21:35;12;11;
43479;PMS5003;29067;35.492;-97.520;2023-08-24T14:24:03;12;12;
43479;PMS5003;29067;35.492;-97.520;2023-08-24T14:26:36;11;10;
43479;PMS5003;29067;35.492;-97.520;2023-08-24T14:29:04;13;11;
43479;PMS5003;29067;35.492;-97.520;2023-08-24T14:31:33;11;11;
43479;PMS5003;29067;35.492;-97.520;2023-08-24T14:34:01;11;11;
43479;PMS5003;29067;35.492;-97.520;2023-08-24T14:36:34;9;9;
43479;PMS5003;29067;35.492;-97.520;2023-08-24T14:39:03;10;7;
43479;PMS5003;29067;35.492;-97.520;2023-08-24T14:41:30;11;9;
43479;PMS5003;29067;35.492;-97.520;2023-08-24T14:44:08;9;9;
43479;PMS5003;29067;35.492;-97.520;2023-08-24T14:46:47;10;8;
43479;PMS5003;29067;35.492;-97.520;2023-08-24T14:49:15;14;11;
43479;PMS5003;29067;35.492;-97.520;2023-08-24T14:51:44;12;10;
43479;PMS5003;29067;35.492;-97.520;2023-08-24T14:54:12;9;9;
43479;PMS5003;29067;35.492;-97.520;2023-08-24T14:56:40;12;10;
43479;PMS5003;29067;35.492;-97.520;2023-08-24T14:59:12;11;10;
43479;PMS5003;29067;35.492;-97.520;2023-08-24T15:01:45;9;8;
43479;PMS5003;29067;35.492;-97.520;2023-08-24T15:04:13;14;11;
43479;PMS5003;29067;35.492;-97.520;2023-08-24T15:06:41;9;7;
43479;PMS5003;29067;35.492;-97.520;2023-08-24T15:09:09;10;8;
43479;PMS5003;29067;35.492;-97.520;2023-08-24T15:11:42;15;10;
43479;PMS5003;29067;35.492;-97.520;2023-08-24T15:14:11;8;8;
43479;PMS5003;29067;35.492;-97.520;2023-08-24T15:16:39;10;9;
43479;PMS5003;29067;35.492;-97.520;2023-08-24T15:19:13;9;8;
43479;PMS5003;29067;35.492;-97.520;2023-08-24T15:21:41;11;8;
43479;PMS5003;29067;35.492;-97.520;2023-08-24T15:24:09;10;8;
43479;PMS5003;29067;35.492;-97.520;2023-08-24T15:26:38;10;10;
43479;PMS5003;29067;35.492;-97.520;2023-08-24T15:29:07;9;9;
43479;PMS5003;29067;35.492;-97.520;2023-08-24T15:31:38;6;6;
43479;PMS5003;29067;35.492;-97.520;2023-08-24T15:34:06;8;7;
43479;PMS5003;29067;35.492;-97.520;2023-08-24T15:36:36;8;6;
43479;PMS5003;29067;35.492;-97.520;2023-08-24T15:39:10;8;7;
43479;PMS5003;29067;35.492;-97.520;2023-08-24T15:41:43;10;8;
43479;PMS5003;29067;35.492;-97.520;2023-08-24T15:44:12;8;7;
43479;PMS5003;29067;35.492;-97.520;2023-08-24T15:46:40;7;6;
43479;PMS5003;29067;35.492;-97.520;2023-08-24T15:49:08;5;5;
43479;PMS5003;29067;35.492;-97.520;2023-08-24T15:51:36;10;7;
43479;PMS5003;29067;35.492;-97.520;2023-08-24T15:54:05;6;5;
43479;PMS5003;29067;35.492;-97.520;2023-08-24T15:56:38;8;7;
43479;PMS5003;29067;35.492;-97.520;2023-08-24T15:59:06;8;7;
43479;PMS5003;29067;35.492;-97.520;2023-08-24T16:01:34;4;4;
43479;PMS5003;29067;35.492;-97.520;2023-08-24T16:04:03;6;6;
43479;PMS5003;29067;35.492;-97.520;2023-08-24T16:06:31;6;6;
43479;PMS5003;29067;35.492;-97.520;2023-08-24T16:08:59;7;6;